sensor_id;sensor_type;location;lat;lon;timestamp;pressure;altitude;pressure_sealevel;temperature;humidity
73974;BME280;62336;-26.094;27.994;2023-02-28T00:00:41;85069.63;;;32.91;23.83
73974;BME280;62336;-26.094;27.994;2023-02-28T00:03:06;85068.71;;;33.20;23.32
73974;BME280;62336;-26.094;27.994;2023-02-28T00:05:33;85064.20;;;33.34;23.12
73974;BME280;62336;-26.094;27.994;2023-02-28T00:07:57;85058.48;;;32.53;23.54
73974;BME280;62336;-26.094;27.994;2023-02-28T00:10:24;85050.24;;;32.51;23.90
73974;BME280;62336;-26.094;27.994;2023-02-28T00:12:47;85045.75;;;33.27;23.36
73974;BME280;62336;-26.094;27.994;2023-02-28T00:15:11;85041.07;;;33.20;23.36
73974;BME280;62336;-26.094;27.994;2023-02-28T00:17:37;85033.09;;;33.03;23.53
73974;BME280;62336;-26.094;27.994;2023-02-28T00:20:02;85022.06;;;33.52;23.22
73974;BME280;62336;-26.094;27.994;2023-02-28T00:22:27;85013.54;;;33.41;22.91
73974;BME280;62336;-26.094;27.994;2023-02-28T00:24:52;85011.63;;;32.74;23.18
73974;BME280;62336;-26.094;27.994;2023-02-28T00:27:18;85008.29;;;32.83;23.06
73974;BME280;62336;-26.094;27.994;2023-02-28T00:29:42;85005.22;;;33.05;23.39
73974;BME280;62336;-26.094;27.994;2023-02-28T00:32:07;85006.47;;;32.76;23.64
73974;BME280;62336;-26.094;27.994;2023-02-28T00:34:33;85008.82;;;32.79;23.38
73974;BME280;62336;-26.094;27.994;2023-02-28T00:36:58;85012.80;;;33.18;23.16
73974;BME280;62336;-26.094;27.994;2023-02-28T00:39:24;85010.14;;;33.12;23.02
73974;BME280;62336;-26.094;27.994;2023-02-28T00:41:49;85006.20;;;33.35;22.92
73974;BME280;62336;-26.094;27.994;2023-02-28T00:44:15;85001.00;;;33.29;23.24
73974;BME280;62336;-26.094;27.994;2023-02-28T00:46:40;85000.56;;;33.12;23.24
73974;BME280;62336;-26.094;27.994;2023-02-28T00:49:05;85000.39;;;33.08;23.26
73974;BME280;62336;-26.094;27.994;2023-02-28T00:51:30;84998.65;;;33.09;23.49
73974;BME280;62336;-26.094;27.994;2023-02-28T00:53:55;84996.06;;;33.66;23.03
73974;BME280;62336;-26.094;27.994;2023-02-28T00:56:20;84994.60;;;33.49;23.32
73974;BME280;62336;-26.094;27.994;2023-02-28T00:58:46;84987.55;;;32.94;23.33
73974;BME280;62336;-26.094;27.994;2023-02-28T01:01:12;84989.05;;;33.14;23.45
73974;BME280;62336;-26.094;27.994;2023-02-28T01:03:38;84989.71;;;33.00;23.31
73974;BME280;62336;-26.094;27.994;2023-02-28T01:06:03;84988.54;;;33.41;23.25
73974;BME280;62336;-26.094;27.994;2023-02-28T01:08:29;84984.54;;;33.50;23.19
73974;BME280;62336;-26.094;27.994;2023-02-28T01:10:54;84980.51;;;33.12;23.37
73974;BME280;62336;-26.094;27.994;2023-02-28T01:13:20;84978.54;;;33.21;23.38
73974;BME280;62336;-26.094;27.994;2023-02-28T01:15:49;84974.73;;;33.21;23.22
73974;BME280;62336;-26.094;27.994;2023-02-28T01:18:10;84969.38;;;33.30;23.20
73974;BME280;62336;-26.094;27.994;2023-02-28T01:20:38;84966.48;;;33.70;23.28
73974;BME280;62336;-26.094;27.994;2023-02-28T01:23:01;84962.18;;;33.96;23.16
73974;BME280;62336;-26.094;27.994;2023-02-28T01:25:27;84961.76;;;33.02;23.68
73974;BME280;62336;-26.094;27.994;2023-02-28T01:27:52;84957.55;;;33.54;23.39
73974;BME280;62336;-26.094;27.994;2023-02-28T01:30:17;84951.06;;;33.25;23.32
73974;BME280;62336;-26.094;27.994;2023-02-28T01:32:43;84948.31;;;33.21;23.37
73974;BME280;62336;-26.094;27.994;2023-02-28T01:35:09;84941.45;;;33.43;23.07
73974;BME280;62336;-26.094;27.994;2023-02-28T01:37:33;84940.24;;;33.55;23.20
73974;BME280;62336;-26.094;27.994;2023-02-28T01:39:59;84938.76;;;33.47;23.20
73974;BME280;62336;-26.094;27.994;2023-02-28T01:42:26;84942.54;;;33.29;23.79
73974;BME280;62336;-26.094;27.994;2023-02-28T01:45:15;84937.97;;;33.56;23.14
73974;BME280;62336;-26.094;27.994;2023-02-28T01:47:16;84932.15;;;33.73;23.38
73974;BME280;62336;-26.094;27.994;2023-02-28T01:49:40;84923.15;;;33.37;23.30
73974;BME280;62336;-26.094;27.994;2023-02-28T01:52:06;84918.22;;;33.41;23.28
73974;BME280;62336;-26.094;27.994;2023-02-28T01:54:33;84913.77;;;33.32;23.28
73974;BME280;62336;-26.094;27.994;2023-02-28T01:57:00;84915.72;;;33.16;23.57
73974;BME280;62336;-26.094;27.994;2023-02-28T01:59:24;84918.37;;;33.41;23.18
73974;BME280;62336;-26.094;27.994;2023-02-28T02:01:48;84918.42;;;33.30;23.36
73974;BME280;62336;-26.094;27.994;2023-02-28T02:04:13;84912.35;;;33.46;23.46
73974;BME280;62336;-26.094;27.994;2023-02-28T02:06:42;84904.40;;;33.70;23.42
73974;BME280;62336;-26.094;27.994;2023-02-28T02:09:05;84897.37;;;33.60;23.23
73974;BME280;62336;-26.094;27.994;2023-02-28T02:11:30;84890.41;;;33.39;23.29
73974;BME280;62336;-26.094;27.994;2023-02-28T02:16:31;84883.46;;;33.53;23.24
73974;BME280;62336;-26.094;27.994;2023-02-28T02:18:48;84885.13;;;33.57;23.00
73974;BME280;62336;-26.094;27.994;2023-02-28T02:21:29;84889.55;;;33.20;23.18
73974;BME280;62336;-26.094;27.994;2023-02-28T02:28:39;84896.24;;;33.70;23.07
73974;BME280;62336;-26.094;27.994;2023-02-28T02:33:28;84888.34;;;33.34;23.13
73974;BME280;62336;-26.094;27.994;2023-02-28T02:35:46;84884.36;;;33.33;23.15
73974;BME280;62336;-26.094;27.994;2023-02-28T02:38:10;84884.07;;;33.72;22.87
73974;BME280;62336;-26.094;27.994;2023-02-28T02:40:38;84889.07;;;34.40;22.52
73974;BME280;62336;-26.094;27.994;2023-02-28T02:43:02;84897.94;;;33.78;22.83
73974;BME280;62336;-26.094;27.994;2023-02-28T02:45:28;84901.64;;;33.66;22.81
73974;BME280;62336;-26.094;27.994;2023-02-28T02:47:49;84902.33;;;33.22;23.13
73974;BME280;62336;-26.094;27.994;2023-02-28T02:50:17;84896.03;;;33.33;23.06
73974;BME280;62336;-26.094;27.994;2023-02-28T02:52:42;84898.88;;;33.18;23.15
73974;BME280;62336;-26.094;27.994;2023-02-28T02:55:07;84905.11;;;33.46;22.94
73974;BME280;62336;-26.094;27.994;2023-02-28T02:57:33;84912.28;;;33.67;23.01
73974;BME280;62336;-26.094;27.994;2023-02-28T02:59:57;84916.98;;;33.47;23.10
73974;BME280;62336;-26.094;27.994;2023-02-28T03:02:21;84915.43;;;33.33;22.94
73974;BME280;62336;-26.094;27.994;2023-02-28T03:04:50;84913.63;;;33.34;23.26
73974;BME280;62336;-26.094;27.994;2023-02-28T03:07:11;84922.53;;;32.68;23.59
73974;BME280;62336;-26.094;27.994;2023-02-28T03:09:36;84925.35;;;32.93;23.64
73974;BME280;62336;-26.094;27.994;2023-02-28T03:12:02;84926.75;;;32.63;23.69
73974;BME280;62336;-26.094;27.994;2023-02-28T03:14:34;84923.89;;;33.08;23.41
73974;BME280;62336;-26.094;27.994;2023-02-28T03:17:02;84922.37;;;32.87;23.13
73974;BME280;62336;-26.094;27.994;2023-02-28T03:21:46;84915.59;;;32.88;23.57
73974;BME280;62336;-26.094;27.994;2023-02-28T03:24:10;84919.07;;;32.68;23.27
73974;BME280;62336;-26.094;27.994;2023-02-28T03:26:36;84921.24;;;32.48;23.43
73974;BME280;62336;-26.094;27.994;2023-02-28T03:29:04;84921.40;;;32.58;23.47
73974;BME280;62336;-26.094;27.994;2023-02-28T03:31:30;84917.68;;;32.80;23.38
73974;BME280;62336;-26.094;27.994;2023-02-28T03:33:54;84915.61;;;32.52;23.67
73974;BME280;62336;-26.094;27.994;2023-02-28T03:36:18;84917.26;;;32.81;23.41
73974;BME280;62336;-26.094;27.994;2023-02-28T03:38:44;84922.20;;;32.97;22.81
73974;BME280;62336;-26.094;27.994;2023-02-28T03:41:09;84927.56;;;32.72;23.57
73974;BME280;62336;-26.094;27.994;2023-02-28T03:43:34;84932.57;;;32.34;23.77
73974;BME280;62336;-26.094;27.994;2023-02-28T03:45:55;84935.38;;;32.43;23.68
73974;BME280;62336;-26.094;27.994;2023-02-28T03:48:25;84936.09;;;32.44;23.78
73974;BME280;62336;-26.094;27.994;2023-02-28T03:50:48;84932.27;;;32.48;23.97
73974;BME280;62336;-26.094;27.994;2023-02-28T03:53:19;84928.20;;;33.15;23.52
73974;BME280;62336;-26.094;27.994;2023-02-28T04:02:55;84931.67;;;32.56;23.44
73974;BME280;62336;-26.094;27.994;2023-02-28T06:38:50;84937.08;;;34.37;20.86
73974;BME280;62336;-26.094;27.994;2023-02-28T06:43:51;84940.26;;;34.82;20.49
73974;BME280;62336;-26.094;27.994;2023-02-28T06:48:31;84939.31;;;34.80;20.89
73974;BME280;62336;-26.094;27.994;2023-02-28T06:51:02;84933.91;;;34.69;20.15
73974;BME280;62336;-26.094;27.994;2023-02-28T06:53:21;84933.50;;;34.81;20.55
73974;BME280;62336;-26.094;27.994;2023-02-28T06:55:52;84928.72;;;34.33;19.86
73974;BME280;62336;-26.094;27.994;2023-02-28T06:58:12;84929.07;;;34.35;20.13
73974;BME280;62336;-26.094;27.994;2023-02-28T07:00:36;84925.13;;;34.90;19.86
73974;BME280;62336;-26.094;27.994;2023-02-28T07:03:02;84920.76;;;34.76;19.94
73974;BME280;62336;-26.094;27.994;2023-02-28T07:05:27;84928.64;;;34.86;19.86
73974;BME280;62336;-26.094;27.994;2023-02-28T07:07:52;84925.94;;;35.23;20.23
73974;BME280;62336;-26.094;27.994;2023-02-28T07:10:18;84928.50;;;35.66;19.47
73974;BME280;62336;-26.094;27.994;2023-02-28T07:12:45;84925.92;;;35.04;19.88
73974;BME280;62336;-26.094;27.994;2023-02-28T07:15:10;84925.90;;;35.56;19.41
73974;BME280;62336;-26.094;27.994;2023-02-28T07:17:35;84919.03;;;35.71;19.64
73974;BME280;62336;-26.094;27.994;2023-02-28T07:19:59;84924.80;;;35.74;19.56
73974;BME280;62336;-26.094;27.994;2023-02-28T07:22:23;84917.67;;;35.74;19.36
73974;BME280;62336;-26.094;27.994;2023-02-28T07:24:49;84913.59;;;35.82;19.47
73974;BME280;62336;-26.094;27.994;2023-02-28T07:27:15;84910.33;;;36.30;19.32
73974;BME280;62336;-26.094;27.994;2023-02-28T07:29:39;84915.35;;;36.20;19.54
73974;BME280;62336;-26.094;27.994;2023-02-28T07:32:04;84916.91;;;36.04;18.62
73974;BME280;62336;-26.094;27.994;2023-02-28T07:34:30;84915.42;;;35.51;19.57
73974;BME280;62336;-26.094;27.994;2023-02-28T07:36:55;84917.80;;;36.17;18.77
73974;BME280;62336;-26.094;27.994;2023-02-28T07:39:22;84914.67;;;36.38;18.04
73974;BME280;62336;-26.094;27.994;2023-02-28T07:41:45;84913.83;;;36.00;18.49
73974;BME280;62336;-26.094;27.994;2023-02-28T07:44:11;84913.31;;;35.81;19.02
73974;BME280;62336;-26.094;27.994;2023-02-28T07:46:36;84912.70;;;35.87;18.89
73974;BME280;62336;-26.094;27.994;2023-02-28T07:49:02;84907.97;;;35.87;18.32
73974;BME280;62336;-26.094;27.994;2023-02-28T07:51:26;84905.88;;;36.51;18.36
73974;BME280;62336;-26.094;27.994;2023-02-28T07:53:51;84907.08;;;36.85;18.07
73974;BME280;62336;-26.094;27.994;2023-02-28T07:56:16;84905.75;;;36.59;18.13
73974;BME280;62336;-26.094;27.994;2023-02-28T07:58:43;84904.15;;;36.51;18.44
73974;BME280;62336;-26.094;27.994;2023-02-28T08:01:09;84904.27;;;36.51;18.01
73974;BME280;62336;-26.094;27.994;2023-02-28T08:03:34;84906.50;;;36.59;18.57
73974;BME280;62336;-26.094;27.994;2023-02-28T08:05:59;84901.32;;;36.76;18.21
73974;BME280;62336;-26.094;27.994;2023-02-28T08:08:24;84898.09;;;37.39;17.70
73974;BME280;62336;-26.094;27.994;2023-02-28T08:10:49;84896.88;;;36.87;17.89
73974;BME280;62336;-26.094;27.994;2023-02-28T08:13:14;84895.07;;;37.56;17.40
73974;BME280;62336;-26.094;27.994;2023-02-28T08:15:41;84894.83;;;37.46;17.20
73974;BME280;62336;-26.094;27.994;2023-02-28T08:18:04;84886.00;;;37.99;16.27
73974;BME280;62336;-26.094;27.994;2023-02-28T08:20:29;84881.06;;;37.62;17.24
73974;BME280;62336;-26.094;27.994;2023-02-28T08:22:55;84881.20;;;37.42;17.15
73974;BME280;62336;-26.094;27.994;2023-02-28T08:25:20;84876.11;;;37.66;17.13
73974;BME280;62336;-26.094;27.994;2023-02-28T08:27:45;84873.52;;;37.23;16.53
73974;BME280;62336;-26.094;27.994;2023-02-28T08:30:11;84875.09;;;37.57;16.67
73974;BME280;62336;-26.094;27.994;2023-02-28T08:32:35;84876.90;;;37.35;16.83
73974;BME280;62336;-26.094;27.994;2023-02-28T08:35:00;84874.92;;;37.68;16.19
73974;BME280;62336;-26.094;27.994;2023-02-28T08:37:25;84879.13;;;38.16;16.08
73974;BME280;62336;-26.094;27.994;2023-02-28T08:39:50;84873.69;;;37.89;15.69
73974;BME280;62336;-26.094;27.994;2023-02-28T08:42:14;84873.87;;;37.94;15.98
73974;BME280;62336;-26.094;27.994;2023-02-28T08:44:41;84872.53;;;37.65;16.35
73974;BME280;62336;-26.094;27.994;2023-02-28T08:47:06;84870.28;;;37.89;15.85
73974;BME280;62336;-26.094;27.994;2023-02-28T08:49:31;84871.73;;;37.83;16.28
73974;BME280;62336;-26.094;27.994;2023-02-28T08:51:56;84867.63;;;37.82;16.11
73974;BME280;62336;-26.094;27.994;2023-02-28T08:54:22;84862.92;;;38.11;15.50
73974;BME280;62336;-26.094;27.994;2023-02-28T08:56:48;84860.24;;;38.29;16.19
73974;BME280;62336;-26.094;27.994;2023-02-28T08:59:14;84862.57;;;38.16;16.11
73974;BME280;62336;-26.094;27.994;2023-02-28T09:01:39;84859.40;;;38.24;15.46
73974;BME280;62336;-26.094;27.994;2023-02-28T09:04:04;84855.56;;;38.06;16.09
73974;BME280;62336;-26.094;27.994;2023-02-28T09:06:29;84852.93;;;38.20;14.75
73974;BME280;62336;-26.094;27.994;2023-02-28T09:08:57;84846.62;;;38.35;15.28
73974;BME280;62336;-26.094;27.994;2023-02-28T09:11:20;84843.37;;;37.98;15.00
73974;BME280;62336;-26.094;27.994;2023-02-28T09:13:46;84838.93;;;38.41;15.55
73974;BME280;62336;-26.094;27.994;2023-02-28T09:16:12;84829.48;;;38.72;14.49
73974;BME280;62336;-26.094;27.994;2023-02-28T09:18:36;84829.22;;;38.40;14.89
73974;BME280;62336;-26.094;27.994;2023-02-28T09:21:03;84826.45;;;38.67;15.29
73974;BME280;62336;-26.094;27.994;2023-02-28T09:23:26;84827.58;;;38.44;14.86
73974;BME280;62336;-26.094;27.994;2023-02-28T09:25:54;84820.48;;;38.96;15.11
73974;BME280;62336;-26.094;27.994;2023-02-28T09:28:18;84817.09;;;38.83;15.02
73974;BME280;62336;-26.094;27.994;2023-02-28T09:30:42;84813.19;;;39.04;14.61
73974;BME280;62336;-26.094;27.994;2023-02-28T09:33:06;84809.20;;;39.05;14.07
73974;BME280;62336;-26.094;27.994;2023-02-28T09:35:31;84809.48;;;39.01;15.33
73974;BME280;62336;-26.094;27.994;2023-02-28T09:37:56;84805.56;;;39.29;14.89
73974;BME280;62336;-26.094;27.994;2023-02-28T09:40:23;84803.97;;;39.47;14.49
73974;BME280;62336;-26.094;27.994;2023-02-28T09:42:48;84805.87;;;39.40;14.58
73974;BME280;62336;-26.094;27.994;2023-02-28T09:45:19;84798.54;;;39.59;13.79
73974;BME280;62336;-26.094;27.994;2023-02-28T09:47:41;84795.08;;;39.52;14.02
73974;BME280;62336;-26.094;27.994;2023-02-28T09:50:11;84789.37;;;39.69;13.87
73974;BME280;62336;-26.094;27.994;2023-02-28T09:52:30;84786.34;;;39.46;13.73
73974;BME280;62336;-26.094;27.994;2023-02-28T09:54:54;84782.00;;;39.80;12.90
73974;BME280;62336;-26.094;27.994;2023-02-28T09:57:31;84776.52;;;39.38;13.31
73974;BME280;62336;-26.094;27.994;2023-02-28T09:59:54;84773.93;;;39.97;14.02
73974;BME280;62336;-26.094;27.994;2023-02-28T10:04:43;84771.72;;;39.68;13.44
73974;BME280;62336;-26.094;27.994;2023-02-28T10:07:05;84766.74;;;39.28;13.89
73974;BME280;62336;-26.094;27.994;2023-02-28T10:09:27;84766.88;;;39.69;13.92
73974;BME280;62336;-26.094;27.994;2023-02-28T10:11:52;84763.45;;;39.74;14.14
73974;BME280;62336;-26.094;27.994;2023-02-28T10:14:17;84754.97;;;39.72;12.62
73974;BME280;62336;-26.094;27.994;2023-02-28T10:16:44;84753.79;;;40.19;12.86
73974;BME280;62336;-26.094;27.994;2023-02-28T10:19:11;84752.85;;;39.99;12.90
73974;BME280;62336;-26.094;27.994;2023-02-28T10:21:37;84749.40;;;39.69;13.45
73974;BME280;62336;-26.094;27.994;2023-02-28T10:24:05;84746.37;;;39.72;13.12
73974;BME280;62336;-26.094;27.994;2023-02-28T10:26:25;84743.94;;;40.03;13.85
73974;BME280;62336;-26.094;27.994;2023-02-28T10:28:48;84740.96;;;40.30;13.95
73974;BME280;62336;-26.094;27.994;2023-02-28T10:31:18;84736.54;;;40.54;12.86
73974;BME280;62336;-26.094;27.994;2023-02-28T10:33:40;84736.74;;;40.60;13.00
73974;BME280;62336;-26.094;27.994;2023-02-28T10:36:08;84734.51;;;40.40;12.96
73974;BME280;62336;-26.094;27.994;2023-02-28T10:38:34;84737.57;;;39.99;13.01
73974;BME280;62336;-26.094;27.994;2023-02-28T10:41:05;84735.81;;;40.37;13.09
73974;BME280;62336;-26.094;27.994;2023-02-28T10:43:22;84734.22;;;40.28;12.67
73974;BME280;62336;-26.094;27.994;2023-02-28T10:45:53;84727.70;;;39.87;12.65
73974;BME280;62336;-26.094;27.994;2023-02-28T10:50:44;84728.30;;;39.60;12.81
73974;BME280;62336;-26.094;27.994;2023-02-28T10:53:16;84724.88;;;39.50;12.80
73974;BME280;62336;-26.094;27.994;2023-02-28T10:55:26;84722.99;;;39.52;13.06
73974;BME280;62336;-26.094;27.994;2023-02-28T10:57:53;84719.20;;;39.83;12.84
73974;BME280;62336;-26.094;27.994;2023-02-28T11:00:21;84717.50;;;40.00;13.59
73974;BME280;62336;-26.094;27.994;2023-02-28T11:02:44;84711.60;;;40.45;13.63
73974;BME280;62336;-26.094;27.994;2023-02-28T11:07:34;84704.54;;;40.27;13.45
73974;BME280;62336;-26.094;27.994;2023-02-28T11:09:59;84705.73;;;40.34;12.90
73974;BME280;62336;-26.094;27.994;2023-02-28T11:12:31;84703.25;;;39.46;13.61
73974;BME280;62336;-26.094;27.994;2023-02-28T11:14:52;84699.53;;;39.47;13.66
73974;BME280;62336;-26.094;27.994;2023-02-28T11:17:20;84697.30;;;40.00;13.79
73974;BME280;62336;-26.094;27.994;2023-02-28T11:19:45;84694.78;;;40.13;14.20
73974;BME280;62336;-26.094;27.994;2023-02-28T11:22:06;84692.20;;;39.48;14.59
73974;BME280;62336;-26.094;27.994;2023-02-28T11:24:33;84690.04;;;39.21;14.16
73974;BME280;62336;-26.094;27.994;2023-02-28T11:26:56;84688.03;;;39.15;15.31
73974;BME280;62336;-26.094;27.994;2023-02-28T11:29:23;84680.97;;;39.46;14.15
73974;BME280;62336;-26.094;27.994;2023-02-28T11:34:23;84668.72;;;40.07;13.94
73974;BME280;62336;-26.094;27.994;2023-02-28T11:36:36;84663.56;;;40.21;13.31
73974;BME280;62336;-26.094;27.994;2023-02-28T11:39:08;84660.26;;;40.50;13.56
73974;BME280;62336;-26.094;27.994;2023-02-28T11:41:38;84657.66;;;40.39;14.16
73974;BME280;62336;-26.094;27.994;2023-02-28T11:44:05;84651.82;;;40.17;13.22
73974;BME280;62336;-26.094;27.994;2023-02-28T11:46:25;84648.86;;;40.77;12.24
73974;BME280;62336;-26.094;27.994;2023-02-28T11:48:50;84646.07;;;40.70;12.66
73974;BME280;62336;-26.094;27.994;2023-02-28T11:51:15;84650.20;;;40.71;12.33
73974;BME280;62336;-26.094;27.994;2023-02-28T11:53:51;84649.15;;;40.53;12.91
73974;BME280;62336;-26.094;27.994;2023-02-28T11:56:02;84647.57;;;40.54;13.34
73974;BME280;62336;-26.094;27.994;2023-02-28T11:58:33;84644.58;;;40.17;13.39
73974;BME280;62336;-26.094;27.994;2023-02-28T12:01:01;84642.10;;;40.16;12.67
73974;BME280;62336;-26.094;27.994;2023-02-28T12:03:23;84642.32;;;40.19;13.21
73974;BME280;62336;-26.094;27.994;2023-02-28T12:05:45;84640.79;;;39.92;13.10
73974;BME280;62336;-26.094;27.994;2023-02-28T12:08:18;84640.02;;;40.18;13.03
73974;BME280;62336;-26.094;27.994;2023-02-28T12:10:37;84636.14;;;40.03;13.33
73974;BME280;62336;-26.094;27.994;2023-02-28T12:13:07;84635.37;;;39.51;13.66
73974;BME280;62336;-26.094;27.994;2023-02-28T12:15:32;84630.15;;;39.31;13.49
73974;BME280;62336;-26.094;27.994;2023-02-28T12:17:55;84631.02;;;39.75;13.42
73974;BME280;62336;-26.094;27.994;2023-02-28T12:20:21;84633.06;;;40.14;13.97
73974;BME280;62336;-26.094;27.994;2023-02-28T12:22:42;84625.83;;;39.87;13.58
73974;BME280;62336;-26.094;27.994;2023-02-28T12:27:29;84618.52;;;39.94;13.46
73974;BME280;62336;-26.094;27.994;2023-02-28T12:29:56;84611.26;;;39.64;13.38
73974;BME280;62336;-26.094;27.994;2023-02-28T12:32:22;84611.48;;;40.35;13.32
73974;BME280;62336;-26.094;27.994;2023-02-28T12:34:46;84611.20;;;40.58;13.28
73974;BME280;62336;-26.094;27.994;2023-02-28T12:37:14;84608.90;;;40.52;13.22
73974;BME280;62336;-26.094;27.994;2023-02-28T12:39:37;84605.38;;;40.73;12.95
73974;BME280;62336;-26.094;27.994;2023-02-28T12:42:03;84602.65;;;40.23;13.30
73974;BME280;62336;-26.094;27.994;2023-02-28T12:44:30;84603.80;;;40.85;13.07
73974;BME280;62336;-26.094;27.994;2023-02-28T12:46:50;84597.03;;;40.56;12.78
73974;BME280;62336;-26.094;27.994;2023-02-28T12:49:17;84589.89;;;40.54;13.24
73974;BME280;62336;-26.094;27.994;2023-02-28T12:51:41;84590.59;;;40.58;13.17
73974;BME280;62336;-26.094;27.994;2023-02-28T12:54:14;84591.30;;;40.61;12.62
73974;BME280;62336;-26.094;27.994;2023-02-28T12:56:37;84590.02;;;40.36;12.97
73974;BME280;62336;-26.094;27.994;2023-02-28T12:58:59;84588.92;;;40.15;13.38
73974;BME280;62336;-26.094;27.994;2023-02-28T13:01:36;84582.96;;;40.35;13.81
73974;BME280;62336;-26.094;27.994;2023-02-28T13:06:21;84578.25;;;40.49;12.74
73974;BME280;62336;-26.094;27.994;2023-02-28T13:08:46;84577.23;;;40.04;13.03
73974;BME280;62336;-26.094;27.994;2023-02-28T13:11:00;84577.31;;;40.70;13.12
73974;BME280;62336;-26.094;27.994;2023-02-28T13:13:27;84576.55;;;40.10;13.69
73974;BME280;62336;-26.094;27.994;2023-02-28T13:16:02;84573.61;;;40.70;13.16
73974;BME280;62336;-26.094;27.994;2023-02-28T13:20:48;84565.81;;;40.86;13.10
73974;BME280;62336;-26.094;27.994;2023-02-28T13:27:57;84548.74;;;40.12;13.62
73974;BME280;62336;-26.094;27.994;2023-02-28T13:32:46;84549.80;;;41.16;13.39
73974;BME280;62336;-26.094;27.994;2023-02-28T13:37:43;84549.12;;;41.16;13.14
73974;BME280;62336;-26.094;27.994;2023-02-28T13:40:22;84546.92;;;40.44;13.20
73974;BME280;62336;-26.094;27.994;2023-02-28T13:42:36;84546.62;;;41.14;13.30
73974;BME280;62336;-26.094;27.994;2023-02-28T13:47:23;84544.77;;;40.61;13.02
73974;BME280;62336;-26.094;27.994;2023-02-28T13:49:43;84540.12;;;40.79;12.62
73974;BME280;62336;-26.094;27.994;2023-02-28T13:52:14;84535.34;;;40.89;12.83
73974;BME280;62336;-26.094;27.994;2023-02-28T13:54:42;84529.71;;;40.84;13.41
73974;BME280;62336;-26.094;27.994;2023-02-28T13:57:10;84525.23;;;41.06;12.27
73974;BME280;62336;-26.094;27.994;2023-02-28T13:59:28;84522.65;;;41.10;12.41
73974;BME280;62336;-26.094;27.994;2023-02-28T14:01:58;84523.07;;;41.66;13.00
73974;BME280;62336;-26.094;27.994;2023-02-28T14:06:40;84523.37;;;41.52;12.46
73974;BME280;62336;-26.094;27.994;2023-02-28T14:09:15;84521.19;;;41.57;12.26
73974;BME280;62336;-26.094;27.994;2023-02-28T14:11:33;84518.73;;;41.76;12.52
73974;BME280;62336;-26.094;27.994;2023-02-28T14:13:55;84527.16;;;41.30;13.27
73974;BME280;62336;-26.094;27.994;2023-02-28T14:16:22;84527.77;;;41.02;12.91
73974;BME280;62336;-26.094;27.994;2023-02-28T14:18:50;84527.95;;;41.66;12.16
73974;BME280;62336;-26.094;27.994;2023-02-28T14:21:20;84534.49;;;41.44;12.15
73974;BME280;62336;-26.094;27.994;2023-02-28T14:23:50;84537.55;;;40.80;12.04
73974;BME280;62336;-26.094;27.994;2023-02-28T14:26:06;84534.42;;;40.59;11.78
73974;BME280;62336;-26.094;27.994;2023-02-28T14:28:36;84536.10;;;40.83;11.75
73974;BME280;62336;-26.094;27.994;2023-02-28T14:31:01;84534.95;;;41.20;11.73
73974;BME280;62336;-26.094;27.994;2023-02-28T14:33:23;84536.96;;;41.52;11.65
73974;BME280;62336;-26.094;27.994;2023-02-28T14:35:53;84537.57;;;41.31;12.18
73974;BME280;62336;-26.094;27.994;2023-02-28T14:38:14;84540.05;;;41.36;13.45
73974;BME280;62336;-26.094;27.994;2023-02-28T14:40:34;84541.99;;;40.55;13.00
73974;BME280;62336;-26.094;27.994;2023-02-28T14:42:58;84542.52;;;41.16;12.30
73974;BME280;62336;-26.094;27.994;2023-02-28T14:45:23;84546.04;;;40.97;13.32
73974;BME280;62336;-26.094;27.994;2023-02-28T14:47:48;84546.46;;;40.12;13.65
73974;BME280;62336;-26.094;27.994;2023-02-28T14:50:18;84546.33;;;40.28;14.26
73974;BME280;62336;-26.094;27.994;2023-02-28T14:52:39;84547.04;;;40.06;13.31
73974;BME280;62336;-26.094;27.994;2023-02-28T14:55:06;84547.03;;;39.94;13.43
73974;BME280;62336;-26.094;27.994;2023-02-28T14:57:30;84549.07;;;40.26;13.54
73974;BME280;62336;-26.094;27.994;2023-02-28T15:00:01;84552.06;;;39.64;13.50
73974;BME280;62336;-26.094;27.994;2023-02-28T15:02:21;84552.16;;;39.95;13.37
73974;BME280;62336;-26.094;27.994;2023-02-28T15:04:53;84550.71;;;40.38;13.21
73974;BME280;62336;-26.094;27.994;2023-02-28T15:07:10;84547.96;;;40.16;13.20
73974;BME280;62336;-26.094;27.994;2023-02-28T15:09:34;84547.85;;;40.22;13.43
73974;BME280;62336;-26.094;27.994;2023-02-28T15:12:00;84551.73;;;39.80;13.67
73974;BME280;62336;-26.094;27.994;2023-02-28T15:14:27;84553.23;;;39.69;13.78
73974;BME280;62336;-26.094;27.994;2023-02-28T15:16:55;84555.48;;;39.47;14.23
73974;BME280;62336;-26.094;27.994;2023-02-28T15:19:21;84554.31;;;39.59;13.80
73974;BME280;62336;-26.094;27.994;2023-02-28T15:21:45;84555.13;;;39.53;13.91
73974;BME280;62336;-26.094;27.994;2023-02-28T15:24:11;84557.92;;;39.46;14.82
73974;BME280;62336;-26.094;27.994;2023-02-28T15:26:34;84562.12;;;39.60;14.23
73974;BME280;62336;-26.094;27.994;2023-02-28T15:29:00;84562.11;;;39.30;14.50
73974;BME280;62336;-26.094;27.994;2023-02-28T15:31:27;84559.66;;;39.81;14.43
73974;BME280;62336;-26.094;27.994;2023-02-28T15:33:54;84557.09;;;39.56;14.79
73974;BME280;62336;-26.094;27.994;2023-02-28T15:36:16;84553.34;;;39.69;14.50
73974;BME280;62336;-26.094;27.994;2023-02-28T15:38:39;84547.44;;;39.42;14.60
73974;BME280;62336;-26.094;27.994;2023-02-28T15:41:05;84542.27;;;39.12;15.18
73974;BME280;62336;-26.094;27.994;2023-02-28T15:43:32;84544.16;;;39.34;14.56
73974;BME280;62336;-26.094;27.994;2023-02-28T15:45:58;84541.55;;;39.07;14.83
73974;BME280;62336;-26.094;27.994;2023-02-28T15:48:23;84539.47;;;39.13;14.40
73974;BME280;62336;-26.094;27.994;2023-02-28T15:50:48;84537.35;;;39.43;14.29
73974;BME280;62336;-26.094;27.994;2023-02-28T15:53:15;84537.12;;;39.14;14.20
73974;BME280;62336;-26.094;27.994;2023-02-28T15:55:37;84535.75;;;39.43;14.80
73974;BME280;62336;-26.094;27.994;2023-02-28T15:58:02;84537.87;;;39.14;15.15